Time;durP1;ratioP1;P1;durP2;ratioP2;P2;SDS_P1;SDS_P2;PMS_P1;PMS_P2;Temp;Humidity;BMP_temperature;BMP_pressure;BME280_temperature;BME280_humidity;BME280_pressure;Samples;Min_cycle;Max_cycle;Signal;HPM_P1;HPM_P2
2021/03/11 00:00:18;;;;;;;27.63;15.20;;;;;;;;;;4966812;28;20384;-83
2021/03/11 00:02:44;;;;;;;23.38;13.63;;;;;;;;;;4962936;28;20634;-83
2021/03/11 00:05:10;;;;;;;24.70;15.25;;;;;;;;;;4963563;28;20034;-83
2021/03/11 00:07:36;;;;;;;19.02;12.15;;;;;;;;;;4961890;28;20034;-83
2021/03/11 00:10:01;;;;;;;21.48;14.70;;;;;;;;;;4944775;29;20122;-82
2021/03/11 00:12:26;;;;;;;22.70;13.48;;;;;;;;;;4943704;28;20041;-82
2021/03/11 00:14:51;;;;;;;24.83;14.32;;;;;;;;;;4974934;28;20717;-83
2021/03/11 00:17:17;;;;;;;19.50;11.70;;;;;;;;;;4965342;28;20455;-83
2021/03/11 00:19:43;;;;;;;23.10;13.10;;;;;;;;;;4959531;29;20369;-83
2021/03/11 00:22:09;;;;;;;19.73;12.32;;;;;;;;;;4958890;28;20325;-84
2021/03/11 00:24:34;;;;;;;21.05;13.18;;;;;;;;;;4971556;28;20031;-82
2021/03/11 00:26:59;;;;;;;21.85;13.98;;;;;;;;;;4991786;28;20046;-82
2021/03/11 00:29:25;;;;;;;21.40;12.63;;;;;;;;;;4997027;28;20084;-82
2021/03/11 00:31:50;;;;;;;23.40;14.07;;;;;;;;;;4987921;28;20428;-83
2021/03/11 00:34:15;;;;;;;23.00;13.52;;;;;;;;;;4980086;28;20042;-83
2021/03/11 00:36:40;;;;;;;22.20;14.93;;;;;;;;;;4998834;28;20030;-82
2021/03/11 00:39:06;;;;;;;16.30;11.17;;;;;;;;;;4980815;28;20260;-83
2021/03/11 00:41:31;;;;;;;21.35;14.05;;;;;;;;;;4981214;28;20077;-83
2021/03/11 00:43:56;;;;;;;22.08;14.90;;;;;;;;;;4999956;28;20030;-83
2021/03/11 00:46:21;;;;;;;24.90;16.07;;;;;;;;;;5005419;28;20486;-83
2021/03/11 00:48:47;;;;;;;28.23;15.95;;;;;;;;;;4984528;28;20287;-85
2021/03/11 00:51:12;;;;;;;22.38;14.10;;;;;;;;;;4972176;28;20690;-85
2021/03/11 00:53:37;;;;;;;26.05;17.20;;;;;;;;;;4981378;28;20378;-85
2021/03/11 00:56:03;;;;;;;30.98;18.02;;;;;;;;;;4975248;28;20031;-83
2021/03/11 00:58:28;;;;;;;23.20;13.77;;;;;;;;;;4989496;28;20490;-83
2021/03/11 01:00:53;;;;;;;24.17;14.97;;;;;;;;;;4999603;28;20110;-83
2021/03/11 01:03:18;;;;;;;23.60;15.33;;;;;;;;;;4976595;28;20264;-83
2021/03/11 01:05:44;;;;;;;27.83;18.60;;;;;;;;;;4994502;28;20041;-82
2021/03/11 01:08:09;;;;;;;26.83;17.73;;;;;;;;;;4991331;28;20069;-82
2021/03/11 01:10:38;;;;;;;27.27;17.80;;;;;;;;;;4969381;28;20117;-82
2021/03/11 01:13:03;;;;;;;28.58;17.90;;;;;;;;;;4992075;28;20072;-82
2021/03/11 01:15:35;;;;;;;22.35;14.13;;;;;;;;;;4991794;28;20050;-82
2021/03/11 01:18:00;;;;;;;27.25;16.38;;;;;;;;;;4996131;28;20072;-82
2021/03/11 01:20:25;;;;;;;29.00;18.02;;;;;;;;;;4971168;28;20375;-81
2021/03/11 01:22:50;;;;;;;22.90;15.00;;;;;;;;;;4996610;28;20034;-82
2021/03/11 01:25:16;;;;;;;28.03;17.67;;;;;;;;;;5001956;28;20030;-83
2021/03/11 01:27:42;;;;;;;27.67;19.43;;;;;;;;;;4983444;28;20284;-83
2021/03/11 01:30:08;;;;;;;31.42;16.83;;;;;;;;;;4988912;28;20618;-82
2021/03/11 01:32:33;;;;;;;27.35;18.10;;;;;;;;;;4978640;28;20033;-82
2021/03/11 01:34:58;;;;;;;26.20;16.70;;;;;;;;;;5008993;28;20495;-82
2021/03/11 01:37:24;;;;;;;26.97;17.90;;;;;;;;;;4994147;28;20025;-82
2021/03/11 01:39:49;;;;;;;24.58;17.60;;;;;;;;;;4991987;28;20049;-82
2021/03/11 01:42:15;;;;;;;28.63;18.50;;;;;;;;;;4973082;28;20034;-82
2021/03/11 01:44:40;;;;;;;27.63;16.38;;;;;;;;;;5002037;28;20674;-82
2021/03/11 01:47:05;;;;;;;26.83;18.17;;;;;;;;;;4976430;28;20022;-85
2021/03/11 01:49:30;;;;;;;27.63;18.67;;;;;;;;;;4977136;28;20497;-82
2021/03/11 01:51:56;;;;;;;29.47;16.40;;;;;;;;;;4976074;28;20275;-84
2021/03/11 01:54:22;;;;;;;26.70;15.53;;;;;;;;;;4983725;28;20271;-84
2021/03/11 01:56:47;;;;;;;28.27;16.58;;;;;;;;;;4993355;28;20736;-83
2021/03/11 01:59:13;;;;;;;24.20;17.20;;;;;;;;;;4977728;28;20023;-84
2021/03/11 02:01:38;;;;;;;25.98;18.40;;;;;;;;;;4994867;28;20607;-84
2021/03/11 02:04:03;;;;;;;25.70;15.68;;;;;;;;;;4977666;28;20026;-84
2021/03/11 02:06:28;;;;;;;24.83;17.52;;;;;;;;;;4970926;28;20059;-84
2021/03/11 02:08:54;;;;;;;24.20;16.53;;;;;;;;;;4970243;28;20105;-84
2021/03/11 02:11:26;;;;;;;22.02;14.70;;;;;;;;;;4987619;28;20019;-83
2021/03/11 02:14:09;;;;;;;24.38;15.50;;;;;;;;;;4978696;28;20048;-84
2021/03/11 02:16:38;;;;;;;20.55;14.05;;;;;;;;;;4985643;28;20153;-84
2021/03/11 02:19:03;;;;;;;21.65;14.38;;;;;;;;;;4995889;28;20589;-84
2021/03/11 02:21:30;;;;;;;27.73;17.92;;;;;;;;;;4985208;28;20102;-84
2021/03/11 02:24:01;;;;;;;25.67;16.02;;;;;;;;;;4991536;28;20038;-84
2021/03/11 02:26:45;;;;;;;25.33;14.48;;;;;;;;;;4993239;28;20044;-84
2021/03/11 02:29:15;;;;;;;26.92;17.63;;;;;;;;;;4975495;28;20124;-84
2021/03/11 02:31:41;;;;;;;24.42;16.08;;;;;;;;;;4969487;28;20022;-84
2021/03/11 02:34:26;;;;;;;18.35;11.43;;;;;;;;;;4975326;28;20538;-83
2021/03/11 02:36:53;;;;;;;23.92;16.48;;;;;;;;;;4956781;28;20030;-84
2021/03/11 02:39:20;;;;;;;24.65;15.77;;;;;;;;;;4969415;28;20023;-82
2021/03/11 02:41:46;;;;;;;20.88;14.13;;;;;;;;;;4975464;28;20054;-82
2021/03/11 02:44:11;;;;;;;22.65;15.68;;;;;;;;;;4990250;28;20026;-83
2021/03/11 02:46:38;;;;;;;20.75;13.77;;;;;;;;;;4986879;28;20062;-82
2021/03/11 02:49:03;;;;;;;24.55;17.10;;;;;;;;;;4977864;28;20033;-83
2021/03/11 02:51:42;;;;;;;21.75;13.20;;;;;;;;;;4988724;28;20026;-83
2021/03/11 02:54:07;;;;;;;22.92;15.38;;;;;;;;;;5003804;28;20069;-83
2021/03/11 02:56:34;;;;;;;25.20;14.25;;;;;;;;;;4998499;28;20022;-83
2021/03/11 02:59:00;;;;;;;23.27;15.57;;;;;;;;;;4991143;28;20061;-82
2021/03/11 03:01:26;;;;;;;22.48;13.27;;;;;;;;;;4979759;28;20019;-82
2021/03/11 03:03:52;;;;;;;21.30;14.07;;;;;;;;;;4975359;28;20174;-85
2021/03/11 03:06:18;;;;;;;26.52;16.20;;;;;;;;;;4969425;28;20164;-85
2021/03/11 03:08:43;;;;;;;26.17;16.88;;;;;;;;;;4980711;28;20041;-83
2021/03/11 03:11:10;;;;;;;20.42;14.20;;;;;;;;;;4976955;28;20034;-84
2021/03/11 03:13:36;;;;;;;22.95;14.75;;;;;;;;;;4977797;28;20029;-84
2021/03/11 03:16:01;;;;;;;22.88;15.45;;;;;;;;;;4979927;28;20019;-84
2021/03/11 03:18:28;;;;;;;21.48;16.50;;;;;;;;;;4976597;28;20046;-84
2021/03/11 03:20:54;;;;;;;20.13;13.68;;;;;;;;;;4979079;28;20034;-83
2021/03/11 03:23:20;;;;;;;23.13;14.63;;;;;;;;;;4994537;28;20814;-83
2021/03/11 03:25:46;;;;;;;22.00;10.50;;;;;;;;;;4972984;28;20487;-82
2021/03/11 03:28:11;;;;;;;17.85;11.80;;;;;;;;;;4995724;28;20432;-82
2021/03/11 03:30:36;;;;;;;15.07;10.67;;;;;;;;;;4976475;28;20026;-82
2021/03/11 03:33:02;;;;;;;15.95;11.20;;;;;;;;;;4984611;28;20264;-83
2021/03/11 03:35:27;;;;;;;13.40;8.43;;;;;;;;;;4968499;28;20038;-84
2021/03/11 03:37:53;;;;;;;17.85;9.82;;;;;;;;;;4978646;28;20701;-83
2021/03/11 03:40:20;;;;;;;11.70;8.13;;;;;;;;;;4975805;28;20046;-84
2021/03/11 03:42:48;;;;;;;15.15;9.40;;;;;;;;;;4981747;28;20029;-83
2021/03/11 03:45:17;;;;;;;15.30;9.82;;;;;;;;;;4998859;28;20040;-84
2021/03/11 03:47:43;;;;;;;15.05;11.15;;;;;;;;;;4976414;28;20112;-83
2021/03/11 03:50:09;;;;;;;14.88;9.48;;;;;;;;;;4983418;28;20034;-81
2021/03/11 03:52:36;;;;;;;15.07;10.25;;;;;;;;;;4988351;28;20022;-81
2021/03/11 03:55:01;;;;;;;12.65;7.97;;;;;;;;;;4985993;28;20037;-82
2021/03/11 03:57:26;;;;;;;17.52;10.73;;;;;;;;;;4976115;28;20533;-84
2021/03/11 03:59:53;;;;;;;15.93;8.93;;;;;;;;;;4980200;28;20028;-82
2021/03/11 04:02:19;;;;;;;11.35;8.00;;;;;;;;;;4978566;28;20026;-82
2021/03/11 04:04:48;;;;;;;13.75;8.35;;;;;;;;;;4961259;28;20023;-81
2021/03/11 04:07:15;;;;;;;12.15;8.32;;;;;;;;;;4974858;28;20106;-81
2021/03/11 04:09:41;;;;;;;12.05;8.95;;;;;;;;;;4970391;28;20117;-83
2021/03/11 04:12:08;;;;;;;12.80;8.43;;;;;;;;;;4990307;28;20046;-82
2021/03/11 04:14:35;;;;;;;12.23;8.05;;;;;;;;;;4997216;28;20029;-83
2021/03/11 04:17:00;;;;;;;16.23;8.65;;;;;;;;;;4975684;28;20030;-82
2021/03/11 04:19:26;;;;;;;15.90;8.93;;;;;;;;;;4988127;28;20726;-83
2021/03/11 04:21:52;;;;;;;13.13;8.17;;;;;;;;;;4996607;28;20026;-82
2021/03/11 04:24:37;;;;;;;8.95;6.70;;;;;;;;;;4977462;28;20048;-86
2021/03/11 04:27:03;;;;;;;9.77;6.32;;;;;;;;;;4985053;28;20081;-86
2021/03/11 04:29:28;;;;;;;11.57;8.25;;;;;;;;;;4973944;28;20094;-86
2021/03/11 04:31:55;;;;;;;11.48;7.18;;;;;;;;;;4989487;28;20022;-83
2021/03/11 04:34:20;;;;;;;12.20;8.23;;;;;;;;;;4969319;28;20037;-82
2021/03/11 04:36:45;;;;;;;11.05;7.93;;;;;;;;;;4991898;28;20026;-83
2021/03/11 04:39:11;;;;;;;12.88;7.22;;;;;;;;;;4976884;28;20049;-85
2021/03/11 04:41:36;;;;;;;10.93;8.13;;;;;;;;;;4978758;28;20493;-85
2021/03/11 04:44:02;;;;;;;13.68;6.70;;;;;;;;;;4968902;28;20018;-85
2021/03/11 04:46:27;;;;;;;11.98;7.63;;;;;;;;;;4998924;28;20022;-84
2021/03/11 04:48:54;;;;;;;9.50;6.30;;;;;;;;;;4946662;28;20018;-83
2021/03/11 04:51:20;;;;;;;13.18;7.22;;;;;;;;;;4991295;28;20049;-81
2021/03/11 04:53:45;;;;;;;11.90;7.28;;;;;;;;;;4989508;28;20062;-83
2021/03/11 04:56:10;;;;;;;15.75;7.75;;;;;;;;;;4973804;28;20454;-80
2021/03/11 04:58:37;;;;;;;11.90;6.43;;;;;;;;;;4967525;28;20042;-82
2021/03/11 05:01:05;;;;;;;10.50;7.53;;;;;;;;;;4967991;28;20031;-81
2021/03/11 05:03:30;;;;;;;14.43;6.10;;;;;;;;;;4979243;28;20073;-81
2021/03/11 05:05:55;;;;;;;10.63;6.47;;;;;;;;;;4974757;28;20038;-81
2021/03/11 05:08:21;;;;;;;10.50;6.87;;;;;;;;;;5000823;28;20023;-81
2021/03/11 05:10:46;;;;;;;18.30;8.50;;;;;;;;;;4988345;28;20137;-81
2021/03/11 05:13:11;;;;;;;13.77;6.28;;;;;;;;;;4966406;28;20029;-81
2021/03/11 05:15:36;;;;;;;18.03;9.20;;;;;;;;;;4972663;28;20449;-81
2021/03/11 05:18:01;;;;;;;15.13;7.23;;;;;;;;;;4998311;28;20021;-82
2021/03/11 05:20:27;;;;;;;17.30;8.38;;;;;;;;;;4969291;28;20061;-81
2021/03/11 05:22:53;;;;;;;14.65;7.25;;;;;;;;;;4971657;28;20031;-80
2021/03/11 05:25:18;;;;;;;14.30;7.40;;;;;;;;;;4970518;28;20041;-82
2021/03/11 05:27:43;;;;;;;13.35;6.70;;;;;;;;;;4993721;28;20051;-80
2021/03/11 05:30:11;;;;;;;13.82;8.40;;;;;;;;;;4987633;28;20161;-81
2021/03/11 05:32:36;;;;;;;12.68;7.53;;;;;;;;;;4987677;28;20026;-81
2021/03/11 05:35:02;;;;;;;11.13;6.03;;;;;;;;;;4995357;28;20014;-81
2021/03/11 05:37:27;;;;;;;8.30;4.78;;;;;;;;;;4979733;28;20089;-81
2021/03/11 05:39:52;;;;;;;7.73;5.70;;;;;;;;;;4990756;28;20427;-81
2021/03/11 05:42:19;;;;;;;11.25;5.45;;;;;;;;;;4997243;28;20808;-82
2021/03/11 05:44:44;;;;;;;11.40;6.47;;;;;;;;;;4994746;28;20665;-82
2021/03/11 05:47:11;;;;;;;12.17;6.30;;;;;;;;;;4976239;28;20022;-81
2021/03/11 05:49:38;;;;;;;8.80;6.53;;;;;;;;;;4973305;28;20385;-81
2021/03/11 05:52:04;;;;;;;10.88;4.78;;;;;;;;;;4986442;28;20466;-81
2021/03/11 05:54:30;;;;;;;11.93;5.90;;;;;;;;;;4976992;28;20045;-82
2021/03/11 05:56:55;;;;;;;13.90;5.90;;;;;;;;;;4977551;28;20505;-83
2021/03/11 05:59:20;;;;;;;12.05;5.57;;;;;;;;;;4994314;28;20022;-85
2021/03/11 06:01:46;;;;;;;9.07;5.40;;;;;;;;;;4977313;28;20028;-83
2021/03/11 06:04:12;;;;;;;11.13;4.95;;;;;;;;;;4969347;28;20019;-84
2021/03/11 06:06:37;;;;;;;11.95;4.88;;;;;;;;;;4969205;28;20493;-81
2021/03/11 06:09:03;;;;;;;10.02;4.15;;;;;;;;;;4992008;28;20030;-82
2021/03/11 06:11:28;;;;;;;7.78;4.38;;;;;;;;;;4979552;28;20039;-80
2021/03/11 06:13:54;;;;;;;10.27;4.20;;;;;;;;;;4987972;28;20710;-81
2021/03/11 06:16:26;;;;;;;8.75;5.18;;;;;;;;;;4973346;28;20022;-81
2021/03/11 06:18:52;;;;;;;11.13;4.47;;;;;;;;;;4992472;28;20026;-83
2021/03/11 06:21:17;;;;;;;7.00;4.47;;;;;;;;;;4980509;28;20049;-80
2021/03/11 06:23:43;;;;;;;9.80;5.07;;;;;;;;;;4982016;28;20023;-79
2021/03/11 06:26:09;;;;;;;8.50;3.38;;;;;;;;;;4984092;28;20115;-80
2021/03/11 06:28:44;;;;;;;10.60;4.20;;;;;;;;;;4977003;28;20434;-83
2021/03/11 06:31:39;;;;;;;14.90;4.82;;;;;;;;;;4985464;28;20029;-85
2021/03/11 06:34:17;;;;;;;10.98;4.20;;;;;;;;;;4899904;29;20039;-84
2021/03/11 06:36:43;;;;;;;8.98;5.28;;;;;;;;;;4918416;29;20020;-84
2021/03/11 06:39:21;;;;;;;10.45;3.10;;;;;;;;;;4915750;29;20151;-82
2021/03/11 06:41:47;;;;;;;8.98;2.75;;;;;;;;;;4923217;29;20741;-81
2021/03/11 06:44:12;;;;;;;7.75;3.08;;;;;;;;;;4909025;29;20049;-83
2021/03/11 06:46:37;;;;;;;10.93;3.85;;;;;;;;;;4902902;29;20555;-83
2021/03/11 06:54:49;;;;;;;10.50;3.85;;;;;;;;;;4979340;23;20067;-81
2021/03/11 06:57:23;;;;;;;15.68;3.88;;;;;;;;;;4955792;28;20038;-82
2021/03/11 06:59:48;;;;;;;19.70;3.78;;;;;;;;;;4929865;28;20035;-82
2021/03/11 07:02:13;;;;;;;22.83;4.20;;;;;;;;;;4931883;29;20024;-81
2021/03/11 07:04:38;;;;;;;22.60;4.30;;;;;;;;;;4932584;28;20102;-80
2021/03/11 07:07:19;;;;;;;21.88;5.95;;;;;;;;;;4939272;28;20046;-81
2021/03/11 07:09:44;;;;;;;21.05;4.75;;;;;;;;;;4946803;28;20027;-81
2021/03/11 07:12:10;;;;;;;31.23;6.80;;;;;;;;;;4934748;29;20030;-81
2021/03/11 07:14:35;;;;;;;32.15;4.63;;;;;;;;;;4928764;29;20026;-83
2021/03/11 07:17:17;;;;;;;22.20;4.10;;;;;;;;;;4922817;28;20035;-80
2021/03/11 07:19:42;;;;;;;33.40;6.78;;;;;;;;;;4951799;28;20025;-83
2021/03/11 07:22:15;;;;;;;40.20;5.40;;;;;;;;;;4946597;28;20105;-81
2021/03/11 07:24:40;;;;;;;35.80;5.40;;;;;;;;;;4945604;28;20264;-79
2021/03/11 07:27:06;;;;;;;31.40;5.80;;;;;;;;;;4942250;28;20036;-82
2021/03/11 07:29:32;;;;;;;30.65;6.00;;;;;;;;;;4948934;28;20307;-81
2021/03/11 07:31:58;;;;;;;19.00;4.53;;;;;;;;;;4947125;28;20027;-81
2021/03/11 07:34:26;;;;;;;33.38;6.68;;;;;;;;;;4954280;28;20028;-84
2021/03/11 07:36:53;;;;;;;28.23;4.68;;;;;;;;;;4962212;28;20108;-82
2021/03/11 07:39:20;;;;;;;33.33;5.22;;;;;;;;;;4959112;28;20023;-81
2021/03/11 07:41:45;;;;;;;25.75;5.00;;;;;;;;;;4952581;28;20106;-81
2021/03/11 07:44:10;;;;;;;23.10;4.22;;;;;;;;;;4956745;28;20546;-81
2021/03/11 07:46:36;;;;;;;37.13;7.20;;;;;;;;;;4949798;28;20034;-79
2021/03/11 07:49:01;;;;;;;28.47;5.73;;;;;;;;;;4945730;28;20042;-82
2021/03/11 07:51:27;;;;;;;31.30;6.10;;;;;;;;;;4938624;28;20816;-81
2021/03/11 07:53:52;;;;;;;20.87;3.57;;;;;;;;;;4951156;28;20043;-79
2021/03/11 07:56:18;;;;;;;30.88;6.43;;;;;;;;;;4941504;29;20265;-80
2021/03/11 07:59:18;;;;;;;34.35;6.10;;;;;;;;;;4938554;29;20074;-85
2021/03/11 08:02:10;;;;;;;23.33;3.92;;;;;;;;;;4883507;29;20039;-83
2021/03/11 08:04:40;;;;;;;39.53;6.70;;;;;;;;;;4877710;29;20045;-79
2021/03/11 08:07:22;;;;;;;29.17;4.95;;;;;;;;;;4876804;29;20029;-80
2021/03/11 08:09:52;;;;;;;26.83;4.57;;;;;;;;;;4875338;29;20070;-83
2021/03/11 08:12:23;;;;;;;28.30;5.88;;;;;;;;;;4875867;29;20025;-81
2021/03/11 08:14:49;;;;;;;27.05;4.65;;;;;;;;;;4877577;29;20029;-80
2021/03/11 08:17:32;;;;;;;33.53;7.25;;;;;;;;;;4883744;29;20101;-80
2021/03/11 08:19:57;;;;;;;31.50;5.47;;;;;;;;;;4879135;29;20039;-77
2021/03/11 08:22:49;;;;;;;31.53;5.50;;;;;;;;;;4874287;29;20033;-79
2021/03/11 08:25:32;;;;;;;38.63;6.78;;;;;;;;;;4876667;29;20860;-84
2021/03/11 08:27:58;;;;;;;43.78;6.25;;;;;;;;;;4874822;29;20030;-80
2021/03/11 08:30:44;;;;;;;35.67;5.47;;;;;;;;;;4872010;29;20048;-80
2021/03/11 08:33:29;;;;;;;33.78;5.57;;;;;;;;;;4877531;29;20029;-81
2021/03/11 08:35:57;;;;;;;26.13;4.97;;;;;;;;;;4922073;28;20486;-81
2021/03/11 08:38:22;;;;;;;28.60;5.28;;;;;;;;;;4947607;28;20026;-82
2021/03/11 08:40:59;;;;;;;31.50;7.28;;;;;;;;;;4942025;28;20050;-82
2021/03/11 08:43:44;;;;;;;29.90;6.15;;;;;;;;;;4953525;28;20032;-80
2021/03/11 08:46:23;;;;;;;44.47;7.03;;;;;;;;;;4931320;29;20031;-83
2021/03/11 08:49:20;;;;;;;32.63;6.57;;;;;;;;;;4953757;28;20031;-83
2021/03/11 08:51:46;;;;;;;39.63;6.65;;;;;;;;;;4908399;29;20152;-79
2021/03/11 08:54:21;;;;;;;38.93;7.27;;;;;;;;;;4894539;29;20965;-79
2021/03/11 08:57:15;;;;;;;44.33;11.10;;;;;;;;;;4896106;29;20020;-83
2021/03/11 08:59:45;;;;;;;25.67;5.05;;;;;;;;;;4915793;29;20106;-79
2021/03/11 09:02:29;;;;;;;40.70;5.38;;;;;;;;;;4912025;29;20112;-79
2021/03/11 09:04:55;;;;;;;46.50;7.68;;;;;;;;;;4916850;29;20046;-82
2021/03/11 09:07:30;;;;;;;40.27;7.87;;;;;;;;;;4903411;29;20040;-81
2021/03/11 09:09:55;;;;;;;37.38;6.65;;;;;;;;;;4915769;29;20298;-81
2021/03/11 09:12:31;;;;;;;36.05;6.68;;;;;;;;;;4898453;29;20028;-81
2021/03/11 09:14:57;;;;;;;41.63;7.40;;;;;;;;;;4916325;29;20036;-82
2021/03/11 09:17:32;;;;;;;37.97;7.25;;;;;;;;;;4897825;29;20096;-81
2021/03/11 09:20:01;;;;;;;38.42;7.45;;;;;;;;;;4905354;29;20031;-81
2021/03/11 09:22:36;;;;;;;33.95;6.45;;;;;;;;;;4915257;29;20361;-80
2021/03/11 09:25:21;;;;;;;32.85;7.68;;;;;;;;;;4917167;29;20040;-85
2021/03/11 09:27:59;;;;;;;43.08;7.57;;;;;;;;;;4943232;28;20034;-84
2021/03/11 09:30:24;;;;;;;42.40;7.53;;;;;;;;;;4945775;28;20023;-83
2021/03/11 09:32:49;;;;;;;40.90;7.95;;;;;;;;;;4958410;28;20029;-83
2021/03/11 09:35:15;;;;;;;33.75;6.95;;;;;;;;;;4954292;28;20019;-83
2021/03/11 09:37:43;;;;;;;29.42;5.13;;;;;;;;;;4958701;28;20065;-82
2021/03/11 09:40:10;;;;;;;29.00;7.38;;;;;;;;;;4949275;29;20376;-83
2021/03/11 09:42:36;;;;;;;28.88;6.10;;;;;;;;;;4933192;29;20023;-80
2021/03/11 09:45:01;;;;;;;36.60;6.55;;;;;;;;;;4935395;29;20058;-83
2021/03/11 09:47:32;;;;;;;31.80;7.07;;;;;;;;;;4957964;28;20478;-86
2021/03/11 09:50:09;;;;;;;28.88;6.15;;;;;;;;;;4952226;28;20106;-84
2021/03/11 09:52:54;;;;;;;48.38;6.28;;;;;;;;;;4947786;28;20588;-85
2021/03/11 09:55:40;;;;;;;44.83;9.45;;;;;;;;;;4946699;28;20046;-81
2021/03/11 09:58:05;;;;;;;41.28;7.97;;;;;;;;;;4930095;29;20020;-84
2021/03/11 10:00:30;;;;;;;40.00;6.63;;;;;;;;;;4939673;29;20034;-83
2021/03/11 10:02:55;;;;;;;42.28;8.27;;;;;;;;;;4941400;29;20034;-81
2021/03/11 10:05:21;;;;;;;49.40;7.40;;;;;;;;;;4945890;28;20027;-80
2021/03/11 10:08:10;;;;;;;40.78;6.50;;;;;;;;;;4955647;28;20264;-83
2021/03/11 10:10:35;;;;;;;37.92;6.32;;;;;;;;;;4943960;29;20118;-82
2021/03/11 10:13:01;;;;;;;49.00;7.38;;;;;;;;;;4927539;29;20416;-83
2021/03/11 10:15:26;;;;;;;32.43;7.43;;;;;;;;;;4950700;28;20023;-81
2021/03/11 10:18:07;;;;;;;43.77;6.43;;;;;;;;;;4927344;28;20027;-82
2021/03/11 10:20:32;;;;;;;39.20;6.57;;;;;;;;;;4950339;28;20476;-84
2021/03/11 10:23:16;;;;;;;32.17;5.95;;;;;;;;;;4927725;29;20087;-81
2021/03/11 10:26:19;;;;;;;37.75;6.43;;;;;;;;;;4950868;29;20347;-83
2021/03/11 10:28:45;;;;;;;35.50;5.28;;;;;;;;;;4949251;29;20042;-80
2021/03/11 10:31:11;;;;;;;39.60;6.32;;;;;;;;;;4947082;28;20035;-81
2021/03/11 10:33:39;;;;;;;27.92;4.70;;;;;;;;;;4955453;28;20023;-83
2021/03/11 10:36:08;;;;;;;28.13;6.22;;;;;;;;;;4960939;28;20019;-85
2021/03/11 10:38:36;;;;;;;32.83;6.38;;;;;;;;;;4952110;29;20039;-82
2021/03/11 10:41:11;;;;;;;36.42;7.07;;;;;;;;;;4945674;29;20118;-84
2021/03/11 10:43:37;;;;;;;49.25;7.38;;;;;;;;;;4947917;29;20110;-80
2021/03/11 10:46:11;;;;;;;34.60;7.20;;;;;;;;;;4933455;29;20126;-85
2021/03/11 10:48:52;;;;;;;32.75;6.30;;;;;;;;;;4947232;29;20371;-81
2021/03/11 10:51:18;;;;;;;25.08;4.88;;;;;;;;;;4955957;29;20042;-78
2021/03/11 10:57:14;;;;;;;34.97;7.40;;;;;;;;;;4878525;29;20060;-84
2021/03/11 11:00:04;;;;;;;34.57;6.07;;;;;;;;;;4877267;29;20064;-81
2021/03/11 11:02:30;;;;;;;37.55;6.03;;;;;;;;;;4878849;29;20036;-86
2021/03/11 11:04:56;;;;;;;31.45;5.70;;;;;;;;;;4864405;29;20029;-83
2021/03/11 11:07:22;;;;;;;32.03;6.90;;;;;;;;;;4860025;29;20055;-82
2021/03/11 11:09:48;;;;;;;27.48;6.00;;;;;;;;;;4861476;29;20041;-81
2021/03/11 11:12:15;;;;;;;41.10;6.65;;;;;;;;;;4877579;29;20041;-80
2021/03/11 11:14:40;;;;;;;47.38;6.38;;;;;;;;;;4861631;29;20102;-82
2021/03/11 11:17:06;;;;;;;49.65;7.82;;;;;;;;;;4868018;29;20028;-83
2021/03/11 11:19:31;;;;;;;37.63;7.85;;;;;;;;;;4874195;29;20038;-82
2021/03/11 11:21:57;;;;;;;47.83;7.82;;;;;;;;;;4878340;29;20021;-84
2021/03/11 11:24:22;;;;;;;63.53;8.15;;;;;;;;;;4858500;29;20021;-82
2021/03/11 11:26:47;;;;;;;33.67;5.87;;;;;;;;;;4875823;29;20068;-80
2021/03/11 11:29:15;;;;;;;37.63;7.83;;;;;;;;;;4875123;29;20427;-82
2021/03/11 11:31:43;;;;;;;55.20;8.80;;;;;;;;;;4861945;29;20284;-80
2021/03/11 11:34:08;;;;;;;41.17;6.87;;;;;;;;;;4939851;28;20035;-79
2021/03/11 11:36:34;;;;;;;55.95;7.90;;;;;;;;;;4947663;28;20426;-80
2021/03/11 11:38:59;;;;;;;38.30;6.53;;;;;;;;;;4958363;28;20368;-81
2021/03/11 11:41:24;;;;;;;52.13;8.83;;;;;;;;;;4936186;29;20292;-83
2021/03/11 11:43:52;;;;;;;36.93;6.03;;;;;;;;;;4938278;29;20059;-84
2021/03/11 11:46:17;;;;;;;49.78;7.88;;;;;;;;;;4952012;29;20328;-82
2021/03/11 11:48:42;;;;;;;45.50;6.80;;;;;;;;;;4940717;29;20095;-81
2021/03/11 11:51:29;;;;;;;54.67;8.53;;;;;;;;;;4957164;28;20038;-82
2021/03/11 11:53:54;;;;;;;;;;;;;;;;;;4964928;28;20048;-83
2021/03/11 11:56:20;;;;;;;49.77;7.70;;;;;;;;;;4956392;28;19972;-80
2021/03/11 11:59:08;;;;;;;50.08;7.97;;;;;;;;;;4956284;28;20031;-84
2021/03/11 12:01:33;;;;;;;38.47;6.68;;;;;;;;;;4951696;29;20572;-84
2021/03/11 12:04:00;;;;;;;35.50;7.63;;;;;;;;;;4953861;28;20035;-84
2021/03/11 12:06:37;;;;;;;31.90;7.72;;;;;;;;;;4945199;29;20055;-83
2021/03/11 12:09:02;;;;;;;35.65;6.72;;;;;;;;;;4955901;28;20031;-83
2021/03/11 12:11:27;;;;;;;58.00;7.63;;;;;;;;;;4935544;29;20128;-80
2021/03/11 12:13:52;;;;;;;36.73;5.50;;;;;;;;;;4949236;28;20160;-81
2021/03/11 12:16:18;;;;;;;52.47;7.87;;;;;;;;;;4953193;28;20035;-82
2021/03/11 12:18:43;;;;;;;40.60;8.60;;;;;;;;;;4951145;28;20095;-82
2021/03/11 12:21:08;;;;;;;33.77;6.37;;;;;;;;;;4950552;28;20060;-80
2021/03/11 12:23:33;;;;;;;35.92;6.43;;;;;;;;;;4957846;28;20340;-80
2021/03/11 12:25:59;;;;;;;54.43;7.83;;;;;;;;;;4964190;28;20048;-81
2021/03/11 12:28:27;;;;;;;34.53;7.88;;;;;;;;;;4943815;28;20289;-83
2021/03/11 12:30:52;;;;;;;45.83;8.13;;;;;;;;;;4962579;28;20023;-83
2021/03/11 12:33:17;;;;;;;42.63;6.50;;;;;;;;;;4940593;29;20026;-81
2021/03/11 12:35:42;;;;;;;29.97;5.67;;;;;;;;;;4939187;28;20054;-82
2021/03/11 12:38:08;;;;;;;51.13;6.68;;;;;;;;;;4940670;29;20281;-81
2021/03/11 12:40:33;;;;;;;42.47;6.43;;;;;;;;;;4937977;28;20475;-84
2021/03/11 12:42:58;;;;;;;38.28;5.95;;;;;;;;;;4941165;29;20031;-84
2021/03/11 12:45:24;;;;;;;67.97;6.37;;;;;;;;;;4940498;29;20375;-85
2021/03/11 12:47:49;;;;;;;38.58;6.00;;;;;;;;;;4937299;28;20051;-82
2021/03/11 12:50:34;;;;;;;30.33;6.03;;;;;;;;;;4963064;28;20771;-82
2021/03/11 12:53:02;;;;;;;44.08;5.95;;;;;;;;;;4905847;29;20325;-84
2021/03/11 12:55:28;;;;;;;28.60;6.28;;;;;;;;;;4913668;29;20040;-83
2021/03/11 12:57:53;;;;;;;26.35;5.18;;;;;;;;;;4912609;29;20071;-81
2021/03/11 13:00:18;;;;;;;42.93;5.47;;;;;;;;;;4904340;29;20075;-81
2021/03/11 13:02:43;;;;;;;48.33;6.18;;;;;;;;;;4911975;29;20036;-82
2021/03/11 13:05:09;;;;;;;44.17;6.70;;;;;;;;;;4911839;29;20099;-81
2021/03/11 13:07:34;;;;;;;33.53;5.60;;;;;;;;;;4909412;29;20087;-83
2021/03/11 13:10:00;;;;;;;32.33;6.63;;;;;;;;;;4914041;29;20024;-80
2021/03/11 13:12:26;;;;;;;32.58;5.05;;;;;;;;;;4899117;29;20387;-79
2021/03/11 13:15:09;;;;;;;38.90;6.65;;;;;;;;;;4914623;29;20036;-84
2021/03/11 13:17:34;;;;;;;32.20;5.22;;;;;;;;;;4892193;29;20444;-81
2021/03/11 13:19:59;;;;;;;30.80;5.18;;;;;;;;;;4917358;29;20024;-82
2021/03/11 13:22:24;;;;;;;35.83;6.20;;;;;;;;;;4916623;29;20036;-85
2021/03/11 13:24:50;;;;;;;33.03;6.10;;;;;;;;;;4943975;28;20662;-84
2021/03/11 13:27:15;;;;;;;32.63;4.30;;;;;;;;;;4952682;28;20332;-81
2021/03/11 13:29:40;;;;;;;47.78;5.50;;;;;;;;;;4953313;29;20335;-82
2021/03/11 13:32:06;;;;;;;43.08;5.53;;;;;;;;;;4949149;28;20031;-82
2021/03/11 13:34:31;;;;;;;28.40;4.35;;;;;;;;;;4950779;28;20622;-82
2021/03/11 13:36:57;;;;;;;32.00;5.22;;;;;;;;;;4949135;28;20022;-83
2021/03/11 13:39:22;;;;;;;36.63;5.17;;;;;;;;;;4929676;29;20142;-82
2021/03/11 13:41:47;;;;;;;31.05;4.63;;;;;;;;;;4954447;28;20046;-81
2021/03/11 13:44:12;;;;;;;26.40;3.87;;;;;;;;;;4937464;29;20028;-81
2021/03/11 13:46:37;;;;;;;33.27;5.20;;;;;;;;;;4934241;29;20944;-81
2021/03/11 13:49:21;;;;;;;35.80;6.40;;;;;;;;;;4949771;28;20023;-82
2021/03/11 13:51:46;;;;;;;16.08;4.03;;;;;;;;;;4952276;28;20391;-84
2021/03/11 13:54:11;;;;;;;30.92;5.78;;;;;;;;;;4939094;29;20095;-87
2021/03/11 13:56:37;;;;;;;31.98;4.38;;;;;;;;;;4954781;28;20019;-84
2021/03/11 13:59:02;;;;;;;26.13;5.72;;;;;;;;;;4951448;29;20023;-81
2021/03/11 14:01:27;;;;;;;23.67;4.43;;;;;;;;;;4928091;29;20027;-79
2021/03/11 14:03:56;;;;;;;23.27;4.20;;;;;;;;;;4936683;28;20034;-85
2021/03/11 14:06:21;;;;;;;30.52;5.53;;;;;;;;;;4942528;28;20316;-81
2021/03/11 14:08:46;;;;;;;33.15;6.10;;;;;;;;;;4958986;28;20035;-82
2021/03/11 14:11:12;;;;;;;26.02;5.25;;;;;;;;;;4933891;29;20529;-81
2021/03/11 14:13:38;;;;;;;22.60;4.45;;;;;;;;;;4943559;28;20031;-78
2021/03/11 14:16:03;;;;;;;23.10;3.40;;;;;;;;;;4930344;29;20042;-82
2021/03/11 14:18:35;;;;;;;34.28;5.53;;;;;;;;;;4947847;28;20030;-84
2021/03/11 14:21:01;;;;;;;25.08;4.72;;;;;;;;;;4958188;28;20429;-84
2021/03/11 14:23:27;;;;;;;34.05;6.03;;;;;;;;;;4944939;29;20023;-82
2021/03/11 14:25:52;;;;;;;29.80;4.82;;;;;;;;;;4951875;28;20043;-81
2021/03/11 14:28:17;;;;;;;28.55;5.15;;;;;;;;;;4946881;29;20023;-83
2021/03/11 14:30:42;;;;;;;31.00;5.53;;;;;;;;;;4956030;28;20027;-82
2021/03/11 14:33:07;;;;;;;22.73;3.70;;;;;;;;;;4954676;29;20027;-79
2021/03/11 14:35:39;;;;;;;22.03;4.77;;;;;;;;;;4948044;29;20026;-83
2021/03/11 14:38:05;;;;;;;40.47;5.25;;;;;;;;;;4930996;29;20269;-81
2021/03/11 14:40:30;;;;;;;21.25;5.43;;;;;;;;;;4958497;28;20019;-81
2021/03/11 14:43:19;;;;;;;27.90;3.92;;;;;;;;;;4940356;29;20118;-83